sensor_id;sensor_type;location;lat;lon;timestamp;P1;durP1;ratioP1;P2;durP2;ratioP2
49416;SDS011;35290;39.550;8.786;2022-09-12T00:00:40;6.65;;;1.50;;
49416;SDS011;35290;39.550;8.786;2022-09-12T00:03:05;7.22;;;1.70;;
49416;SDS011;35290;39.550;8.786;2022-09-12T00:05:31;5.05;;;1.35;;
49416;SDS011;35290;39.550;8.786;2022-09-12T00:07:57;5.38;;;2.17;;
49416;SDS011;35290;39.550;8.786;2022-09-12T00:10:23;6.15;;;1.80;;
49416;SDS011;35290;39.550;8.786;2022-09-12T00:12:48;7.47;;;1.67;;
49416;SDS011;35290;39.550;8.786;2022-09-12T00:15:14;6.45;;;1.48;;
49416;SDS011;35290;39.550;8.786;2022-09-12T00:17:39;7.60;;;1.60;;
49416;SDS011;35290;39.550;8.786;2022-09-12T00:20:05;7.88;;;1.50;;
49416;SDS011;35290;39.550;8.786;2022-09-12T00:22:33;6.78;;;1.60;;
49416;SDS011;35290;39.550;8.786;2022-09-12T00:24:59;6.70;;;1.70;;
49416;SDS011;35290;39.550;8.786;2022-09-12T00:27:24;4.10;;;1.50;;
49416;SDS011;35290;39.550;8.786;2022-09-12T00:29:50;7.35;;;1.75;;
49416;SDS011;35290;39.550;8.786;2022-09-12T00:32:15;4.18;;;1.60;;
49416;SDS011;35290;39.550;8.786;2022-09-12T00:34:41;10.90;;;1.83;;
49416;SDS011;35290;39.550;8.786;2022-09-12T00:37:06;6.53;;;1.60;;
49416;SDS011;35290;39.550;8.786;2022-09-12T00:39:32;3.88;;;1.40;;
49416;SDS011;35290;39.550;8.786;2022-09-12T00:41:57;6.35;;;1.45;;
49416;SDS011;35290;39.550;8.786;2022-09-12T00:52:00;5.88;;;1.60;;
49416;SDS011;35290;39.550;8.786;2022-09-12T00:54:37;6.70;;;2.15;;
49416;SDS011;35290;39.550;8.786;2022-09-12T00:57:05;7.53;;;1.80;;
49416;SDS011;35290;39.550;8.786;2022-09-12T00:59:37;8.98;;;1.80;;
49416;SDS011;35290;39.550;8.786;2022-09-12T01:02:09;8.05;;;1.70;;
49416;SDS011;35290;39.550;8.786;2022-09-12T01:04:35;5.50;;;1.70;;
49416;SDS011;35290;39.550;8.786;2022-09-12T01:07:02;8.38;;;1.70;;
49416;SDS011;35290;39.550;8.786;2022-09-12T01:09:28;6.50;;;1.60;;
49416;SDS011;35290;39.550;8.786;2022-09-12T01:11:55;8.43;;;1.70;;
49416;SDS011;35290;39.550;8.786;2022-09-12T01:14:21;8.57;;;1.85;;
49416;SDS011;35290;39.550;8.786;2022-09-12T01:16:46;5.38;;;1.52;;
49416;SDS011;35290;39.550;8.786;2022-09-12T01:27:26;7.30;;;1.40;;
49416;SDS011;35290;39.550;8.786;2022-09-12T01:32:55;3.95;;;1.42;;
49416;SDS011;35290;39.550;8.786;2022-09-12T01:38:31;7.05;;;1.45;;
49416;SDS011;35290;39.550;8.786;2022-09-12T01:41:05;5.05;;;1.52;;
49416;SDS011;35290;39.550;8.786;2022-09-12T01:49:19;6.85;;;2.22;;
49416;SDS011;35290;39.550;8.786;2022-09-12T01:54:37;4.05;;;1.50;;
49416;SDS011;35290;39.550;8.786;2022-09-12T01:57:15;5.10;;;2.00;;
49416;SDS011;35290;39.550;8.786;2022-09-12T01:59:45;7.15;;;1.75;;
49416;SDS011;35290;39.550;8.786;2022-09-12T02:02:20;9.65;;;1.77;;
49416;SDS011;35290;39.550;8.786;2022-09-12T02:04:51;3.30;;;1.48;;
49416;SDS011;35290;39.550;8.786;2022-09-12T02:07:44;4.32;;;1.90;;
49416;SDS011;35290;39.550;8.786;2022-09-12T02:10:16;5.30;;;1.70;;
49416;SDS011;35290;39.550;8.786;2022-09-12T02:12:57;7.03;;;1.67;;
49416;SDS011;35290;39.550;8.786;2022-09-12T02:15:28;6.18;;;1.45;;
49416;SDS011;35290;39.550;8.786;2022-09-12T02:17:58;4.57;;;1.70;;
49416;SDS011;35290;39.550;8.786;2022-09-12T02:20:27;4.10;;;1.48;;
49416;SDS011;35290;39.550;8.786;2022-09-12T02:22:55;5.93;;;1.50;;
49416;SDS011;35290;39.550;8.786;2022-09-12T02:25:21;6.35;;;2.17;;
49416;SDS011;35290;39.550;8.786;2022-09-12T02:27:53;4.70;;;1.70;;
49416;SDS011;35290;39.550;8.786;2022-09-12T02:30:23;6.55;;;1.80;;
49416;SDS011;35290;39.550;8.786;2022-09-12T02:32:57;6.93;;;2.05;;
49416;SDS011;35290;39.550;8.786;2022-09-12T02:35:40;6.10;;;1.90;;
49416;SDS011;35290;39.550;8.786;2022-09-12T02:38:13;6.70;;;1.80;;
49416;SDS011;35290;39.550;8.786;2022-09-12T02:40:44;5.82;;;1.60;;
49416;SDS011;35290;39.550;8.786;2022-09-12T02:43:10;3.67;;;1.60;;
49416;SDS011;35290;39.550;8.786;2022-09-12T02:45:35;4.82;;;1.80;;
49416;SDS011;35290;39.550;8.786;2022-09-12T02:48:02;5.38;;;2.13;;
49416;SDS011;35290;39.550;8.786;2022-09-12T02:50:30;5.53;;;2.25;;
49416;SDS011;35290;39.550;8.786;2022-09-12T02:52:56;5.55;;;1.80;;
49416;SDS011;35290;39.550;8.786;2022-09-12T02:55:28;6.75;;;2.20;;
49416;SDS011;35290;39.550;8.786;2022-09-12T02:57:55;12.55;;;2.30;;
49416;SDS011;35290;39.550;8.786;2022-09-12T03:00:20;7.85;;;2.08;;
49416;SDS011;35290;39.550;8.786;2022-09-12T03:05:45;6.13;;;1.75;;
49416;SDS011;35290;39.550;8.786;2022-09-12T03:08:45;3.60;;;1.85;;
49416;SDS011;35290;39.550;8.786;2022-09-12T03:16:41;6.40;;;1.90;;
49416;SDS011;35290;39.550;8.786;2022-09-12T03:21:57;5.97;;;1.70;;
49416;SDS011;35290;39.550;8.786;2022-09-12T03:24:47;8.43;;;1.73;;
49416;SDS011;35290;39.550;8.786;2022-09-12T03:27:18;3.75;;;1.50;;
49416;SDS011;35290;39.550;8.786;2022-09-12T03:29:46;5.05;;;1.60;;
49416;SDS011;35290;39.550;8.786;2022-09-12T03:32:13;4.05;;;1.67;;
49416;SDS011;35290;39.550;8.786;2022-09-12T03:34:39;3.70;;;1.70;;
49416;SDS011;35290;39.550;8.786;2022-09-12T03:37:04;6.25;;;1.60;;
49416;SDS011;35290;39.550;8.786;2022-09-12T03:39:30;4.93;;;1.52;;
49416;SDS011;35290;39.550;8.786;2022-09-12T03:41:56;4.30;;;1.63;;
49416;SDS011;35290;39.550;8.786;2022-09-12T03:44:21;2.83;;;1.67;;
49416;SDS011;35290;39.550;8.786;2022-09-12T03:46:47;5.90;;;2.10;;
49416;SDS011;35290;39.550;8.786;2022-09-12T03:49:13;5.25;;;1.80;;
49416;SDS011;35290;39.550;8.786;2022-09-12T03:51:39;4.43;;;1.80;;
49416;SDS011;35290;39.550;8.786;2022-09-12T03:54:04;4.57;;;2.00;;
49416;SDS011;35290;39.550;8.786;2022-09-12T03:56:30;5.78;;;1.90;;
49416;SDS011;35290;39.550;8.786;2022-09-12T03:58:56;7.13;;;1.70;;
49416;SDS011;35290;39.550;8.786;2022-09-12T04:01:21;4.85;;;1.80;;
49416;SDS011;35290;39.550;8.786;2022-09-12T04:03:48;8.73;;;2.15;;
49416;SDS011;35290;39.550;8.786;2022-09-12T04:06:15;5.25;;;2.05;;
49416;SDS011;35290;39.550;8.786;2022-09-12T04:08:42;11.25;;;2.25;;
49416;SDS011;35290;39.550;8.786;2022-09-12T04:11:10;5.75;;;1.80;;
49416;SDS011;35290;39.550;8.786;2022-09-12T04:13:37;5.80;;;1.80;;
49416;SDS011;35290;39.550;8.786;2022-09-12T04:16:05;7.07;;;2.20;;
49416;SDS011;35290;39.550;8.786;2022-09-12T04:18:31;5.88;;;1.50;;
49416;SDS011;35290;39.550;8.786;2022-09-12T04:20:57;4.13;;;1.63;;
49416;SDS011;35290;39.550;8.786;2022-09-12T04:23:22;3.50;;;1.60;;
49416;SDS011;35290;39.550;8.786;2022-09-12T04:25:55;5.53;;;1.75;;
49416;SDS011;35290;39.550;8.786;2022-09-12T04:28:22;3.70;;;1.60;;
49416;SDS011;35290;39.550;8.786;2022-09-12T04:30:48;4.95;;;1.60;;
49416;SDS011;35290;39.550;8.786;2022-09-12T04:33:13;3.20;;;1.48;;
49416;SDS011;35290;39.550;8.786;2022-09-12T04:35:39;2.72;;;1.52;;
49416;SDS011;35290;39.550;8.786;2022-09-12T04:38:05;3.92;;;1.50;;
49416;SDS011;35290;39.550;8.786;2022-09-12T04:40:31;7.53;;;1.60;;
49416;SDS011;35290;39.550;8.786;2022-09-12T04:42:57;3.88;;;1.60;;
49416;SDS011;35290;39.550;8.786;2022-09-12T04:45:23;8.52;;;2.20;;
49416;SDS011;35290;39.550;8.786;2022-09-12T04:47:48;3.65;;;1.60;;
49416;SDS011;35290;39.550;8.786;2022-09-12T04:50:14;4.03;;;1.73;;
49416;SDS011;35290;39.550;8.786;2022-09-12T04:52:40;6.57;;;1.90;;
49416;SDS011;35290;39.550;8.786;2022-09-12T04:55:06;5.22;;;2.00;;
49416;SDS011;35290;39.550;8.786;2022-09-12T04:57:32;7.13;;;2.40;;
49416;SDS011;35290;39.550;8.786;2022-09-12T04:59:58;8.32;;;2.00;;
49416;SDS011;35290;39.550;8.786;2022-09-12T05:02:24;9.77;;;2.65;;
49416;SDS011;35290;39.550;8.786;2022-09-12T05:04:50;7.40;;;2.00;;
49416;SDS011;35290;39.550;8.786;2022-09-12T05:07:16;4.55;;;1.67;;
49416;SDS011;35290;39.550;8.786;2022-09-12T05:09:43;5.22;;;1.67;;
49416;SDS011;35290;39.550;8.786;2022-09-12T05:12:09;9.48;;;2.35;;
49416;SDS011;35290;39.550;8.786;2022-09-12T05:14:34;6.57;;;2.17;;
49416;SDS011;35290;39.550;8.786;2022-09-12T05:17:00;5.50;;;1.80;;
49416;SDS011;35290;39.550;8.786;2022-09-12T05:19:26;5.35;;;1.85;;
49416;SDS011;35290;39.550;8.786;2022-09-12T05:21:52;4.53;;;1.98;;
49416;SDS011;35290;39.550;8.786;2022-09-12T05:24:17;6.30;;;1.90;;
49416;SDS011;35290;39.550;8.786;2022-09-12T05:26:43;6.72;;;2.00;;
49416;SDS011;35290;39.550;8.786;2022-09-12T05:29:08;6.05;;;2.50;;
49416;SDS011;35290;39.550;8.786;2022-09-12T05:31:34;7.65;;;2.13;;
49416;SDS011;35290;39.550;8.786;2022-09-12T05:33:59;8.32;;;2.40;;
49416;SDS011;35290;39.550;8.786;2022-09-12T05:36:28;11.52;;;2.35;;
49416;SDS011;35290;39.550;8.786;2022-09-12T05:38:55;10.15;;;2.03;;
49416;SDS011;35290;39.550;8.786;2022-09-12T05:41:28;8.23;;;1.95;;
49416;SDS011;35290;39.550;8.786;2022-09-12T05:43:58;9.23;;;1.77;;
49416;SDS011;35290;39.550;8.786;2022-09-12T05:46:29;5.22;;;1.88;;
49416;SDS011;35290;39.550;8.786;2022-09-12T05:49:01;3.42;;;1.75;;
49416;SDS011;35290;39.550;8.786;2022-09-12T05:51:27;9.80;;;2.50;;
49416;SDS011;35290;39.550;8.786;2022-09-12T05:53:57;6.07;;;2.00;;
49416;SDS011;35290;39.550;8.786;2022-09-12T05:56:30;4.45;;;1.73;;
49416;SDS011;35290;39.550;8.786;2022-09-12T05:58:58;7.10;;;2.33;;
49416;SDS011;35290;39.550;8.786;2022-09-12T06:01:29;7.18;;;1.70;;
49416;SDS011;35290;39.550;8.786;2022-09-12T06:03:56;7.40;;;1.88;;
49416;SDS011;35290;39.550;8.786;2022-09-12T06:06:25;7.80;;;1.60;;
49416;SDS011;35290;39.550;8.786;2022-09-12T06:08:54;7.88;;;2.17;;
49416;SDS011;35290;39.550;8.786;2022-09-12T06:11:22;6.28;;;1.60;;
49416;SDS011;35290;39.550;8.786;2022-09-12T06:13:49;7.05;;;1.45;;
49416;SDS011;35290;39.550;8.786;2022-09-12T06:16:18;8.55;;;1.48;;
49416;SDS011;35290;39.550;8.786;2022-09-12T06:18:58;4.15;;;1.60;;
49416;SDS011;35290;39.550;8.786;2022-09-12T06:21:37;4.85;;;1.50;;
49416;SDS011;35290;39.550;8.786;2022-09-12T06:24:03;5.25;;;1.30;;
49416;SDS011;35290;39.550;8.786;2022-09-12T06:26:29;5.95;;;1.50;;
49416;SDS011;35290;39.550;8.786;2022-09-12T06:28:55;7.65;;;1.67;;
49416;SDS011;35290;39.550;8.786;2022-09-12T06:31:23;9.50;;;1.35;;
49416;SDS011;35290;39.550;8.786;2022-09-12T06:33:50;5.93;;;1.38;;
49416;SDS011;35290;39.550;8.786;2022-09-12T06:36:24;8.32;;;1.60;;
49416;SDS011;35290;39.550;8.786;2022-09-12T06:39:02;12.80;;;1.85;;
49416;SDS011;35290;39.550;8.786;2022-09-12T06:41:30;6.28;;;1.35;;
49416;SDS011;35290;39.550;8.786;2022-09-12T06:43:56;6.63;;;1.40;;
49416;SDS011;35290;39.550;8.786;2022-09-12T06:46:23;11.35;;;1.60;;
49416;SDS011;35290;39.550;8.786;2022-09-12T06:48:49;6.50;;;1.50;;
49416;SDS011;35290;39.550;8.786;2022-09-12T06:51:16;8.45;;;1.30;;
49416;SDS011;35290;39.550;8.786;2022-09-12T06:53:42;8.50;;;1.30;;
49416;SDS011;35290;39.550;8.786;2022-09-12T06:56:10;3.55;;;1.20;;
49416;SDS011;35290;39.550;8.786;2022-09-12T06:58:40;5.45;;;1.27;;
49416;SDS011;35290;39.550;8.786;2022-09-12T07:01:10;6.07;;;1.40;;
49416;SDS011;35290;39.550;8.786;2022-09-12T07:03:53;3.20;;;1.25;;
49416;SDS011;35290;39.550;8.786;2022-09-12T07:06:21;9.65;;;1.90;;
49416;SDS011;35290;39.550;8.786;2022-09-12T07:08:53;5.95;;;1.73;;
49416;SDS011;35290;39.550;8.786;2022-09-12T07:11:21;7.47;;;1.63;;
49416;SDS011;35290;39.550;8.786;2022-09-12T07:13:48;4.95;;;1.58;;
49416;SDS011;35290;39.550;8.786;2022-09-12T07:16:15;3.42;;;1.58;;
49416;SDS011;35290;39.550;8.786;2022-09-12T07:18:41;4.38;;;1.75;;
49416;SDS011;35290;39.550;8.786;2022-09-12T07:21:11;5.57;;;1.73;;
49416;SDS011;35290;39.550;8.786;2022-09-12T07:23:38;4.47;;;1.70;;
49416;SDS011;35290;39.550;8.786;2022-09-12T07:26:04;3.72;;;1.58;;
49416;SDS011;35290;39.550;8.786;2022-09-12T07:28:31;5.68;;;1.58;;
49416;SDS011;35290;39.550;8.786;2022-09-12T07:30:57;5.47;;;1.70;;
49416;SDS011;35290;39.550;8.786;2022-09-12T07:33:26;5.60;;;1.85;;
49416;SDS011;35290;39.550;8.786;2022-09-12T07:35:53;4.55;;;1.85;;
49416;SDS011;35290;39.550;8.786;2022-09-12T07:38:19;4.25;;;1.70;;
49416;SDS011;35290;39.550;8.786;2022-09-12T07:40:47;8.07;;;2.22;;
49416;SDS011;35290;39.550;8.786;2022-09-12T07:43:20;4.95;;;1.70;;
49416;SDS011;35290;39.550;8.786;2022-09-12T07:45:46;6.43;;;1.80;;
49416;SDS011;35290;39.550;8.786;2022-09-12T07:48:11;6.57;;;2.00;;
49416;SDS011;35290;39.550;8.786;2022-09-12T07:50:37;4.00;;;2.10;;
49416;SDS011;35290;39.550;8.786;2022-09-12T07:53:03;3.42;;;1.75;;
49416;SDS011;35290;39.550;8.786;2022-09-12T07:58:17;8.02;;;2.25;;
49416;SDS011;35290;39.550;8.786;2022-09-12T08:00:42;4.75;;;1.85;;
49416;SDS011;35290;39.550;8.786;2022-09-12T08:03:09;3.08;;;1.52;;
49416;SDS011;35290;39.550;8.786;2022-09-12T08:05:35;6.40;;;1.73;;
49416;SDS011;35290;39.550;8.786;2022-09-12T08:08:01;5.13;;;1.88;;
49416;SDS011;35290;39.550;8.786;2022-09-12T08:10:26;4.22;;;1.90;;
49416;SDS011;35290;39.550;8.786;2022-09-12T08:12:52;4.53;;;1.70;;
49416;SDS011;35290;39.550;8.786;2022-09-12T08:15:17;3.55;;;1.63;;
49416;SDS011;35290;39.550;8.786;2022-09-12T08:17:44;3.15;;;1.70;;
49416;SDS011;35290;39.550;8.786;2022-09-12T08:20:10;5.05;;;1.52;;
49416;SDS011;35290;39.550;8.786;2022-09-12T08:22:36;3.10;;;1.55;;
49416;SDS011;35290;39.550;8.786;2022-09-12T08:25:02;4.30;;;1.85;;
49416;SDS011;35290;39.550;8.786;2022-09-12T08:27:28;5.20;;;1.88;;
49416;SDS011;35290;39.550;8.786;2022-09-12T08:29:53;4.85;;;2.03;;
49416;SDS011;35290;39.550;8.786;2022-09-12T08:32:19;5.78;;;1.70;;
49416;SDS011;35290;39.550;8.786;2022-09-12T08:34:45;6.75;;;1.60;;
49416;SDS011;35290;39.550;8.786;2022-09-12T08:37:10;4.38;;;1.73;;
49416;SDS011;35290;39.550;8.786;2022-09-12T08:39:36;5.85;;;1.77;;
49416;SDS011;35290;39.550;8.786;2022-09-12T08:42:02;7.72;;;1.92;;
49416;SDS011;35290;39.550;8.786;2022-09-12T08:47:43;5.55;;;1.60;;
49416;SDS011;35290;39.550;8.786;2022-09-12T08:58:16;2.92;;;1.30;;
49416;SDS011;35290;39.550;8.786;2022-09-12T09:01:02;2.70;;;1.50;;
49416;SDS011;35290;39.550;8.786;2022-09-12T09:11:59;5.47;;;1.58;;
49416;SDS011;35290;39.550;8.786;2022-09-12T09:17:31;2.80;;;1.08;;
49416;SDS011;35290;39.550;8.786;2022-09-12T09:20:09;2.55;;;1.27;;
49416;SDS011;35290;39.550;8.786;2022-09-12T09:25:50;2.83;;;1.40;;
49416;SDS011;35290;39.550;8.786;2022-09-12T09:28:41;5.00;;;1.50;;
49416;SDS011;35290;39.550;8.786;2022-09-12T09:31:16;3.20;;;1.60;;
49416;SDS011;35290;39.550;8.786;2022-09-12T09:33:42;5.63;;;1.50;;
49416;SDS011;35290;39.550;8.786;2022-09-12T09:44:34;6.55;;;1.58;;
49416;SDS011;35290;39.550;8.786;2022-09-12T09:47:00;3.65;;;1.23;;
49416;SDS011;35290;39.550;8.786;2022-09-12T09:49:26;2.53;;;1.17;;
49416;SDS011;35290;39.550;8.786;2022-09-12T09:51:54;3.25;;;1.15;;
49416;SDS011;35290;39.550;8.786;2022-09-12T09:54:30;4.30;;;1.17;;
49416;SDS011;35290;39.550;8.786;2022-09-12T09:57:30;6.68;;;1.38;;
49416;SDS011;35290;39.550;8.786;2022-09-12T10:03:00;5.78;;;1.35;;
49416;SDS011;35290;39.550;8.786;2022-09-12T10:05:52;4.20;;;1.35;;
49416;SDS011;35290;39.550;8.786;2022-09-12T10:08:23;3.08;;;1.20;;
49416;SDS011;35290;39.550;8.786;2022-09-12T10:11:32;5.00;;;1.25;;
49416;SDS011;35290;39.550;8.786;2022-09-12T10:13:55;3.75;;;1.15;;
49416;SDS011;35290;39.550;8.786;2022-09-12T10:16:22;6.57;;;1.58;;
49416;SDS011;35290;39.550;8.786;2022-09-12T10:18:49;4.47;;;1.20;;
49416;SDS011;35290;39.550;8.786;2022-09-12T10:24:23;6.65;;;1.50;;
49416;SDS011;35290;39.550;8.786;2022-09-12T10:27:21;4.47;;;1.17;;
49416;SDS011;35290;39.550;8.786;2022-09-12T10:29:41;4.88;;;1.20;;
49416;SDS011;35290;39.550;8.786;2022-09-12T10:32:12;8.77;;;1.80;;
49416;SDS011;35290;39.550;8.786;2022-09-12T10:34:45;4.35;;;1.17;;
49416;SDS011;35290;39.550;8.786;2022-09-12T10:37:18;2.90;;;1.10;;
49416;SDS011;35290;39.550;8.786;2022-09-12T10:39:49;3.97;;;1.15;;
49416;SDS011;35290;39.550;8.786;2022-09-12T10:42:39;5.38;;;1.50;;
49416;SDS011;35290;39.550;8.786;2022-09-12T10:45:24;5.90;;;1.30;;
49416;SDS011;35290;39.550;8.786;2022-09-12T10:47:53;3.97;;;1.10;;
49416;SDS011;35290;39.550;8.786;2022-09-12T10:55:49;3.78;;;1.10;;
49416;SDS011;35290;39.550;8.786;2022-09-12T11:07:13;3.05;;;0.90;;
49416;SDS011;35290;39.550;8.786;2022-09-12T11:09:19;3.30;;;0.90;;
49416;SDS011;35290;39.550;8.786;2022-09-12T11:20:25;3.10;;;0.95;;
49416;SDS011;35290;39.550;8.786;2022-09-12T11:29:01;1.38;;;0.80;;
49416;SDS011;35290;39.550;8.786;2022-09-12T11:34:28;2.40;;;0.90;;
49416;SDS011;35290;39.550;8.786;2022-09-12T11:40:05;6.30;;;1.00;;
49416;SDS011;35290;39.550;8.786;2022-09-12T11:45:18;2.30;;;0.80;;
49416;SDS011;35290;39.550;8.786;2022-09-12T11:47:48;2.78;;;1.10;;
49416;SDS011;35290;39.550;8.786;2022-09-12T11:50:21;2.13;;;0.82;;
49416;SDS011;35290;39.550;8.786;2022-09-12T11:52:50;3.72;;;0.80;;
49416;SDS011;35290;39.550;8.786;2022-09-12T11:55:18;1.70;;;1.05;;
49416;SDS011;35290;39.550;8.786;2022-09-12T11:57:51;1.90;;;0.90;;
49416;SDS011;35290;39.550;8.786;2022-09-12T12:05:48;6.22;;;1.17;;
49416;SDS011;35290;39.550;8.786;2022-09-12T12:08:19;3.20;;;1.00;;
49416;SDS011;35290;39.550;8.786;2022-09-12T12:10:48;2.60;;;1.08;;
49416;SDS011;35290;39.550;8.786;2022-09-12T12:13:18;2.77;;;1.00;;
49416;SDS011;35290;39.550;8.786;2022-09-12T12:15:48;5.72;;;0.90;;
49416;SDS011;35290;39.550;8.786;2022-09-12T12:18:18;1.75;;;0.93;;
49416;SDS011;35290;39.550;8.786;2022-09-12T12:20:47;1.30;;;0.90;;
49416;SDS011;35290;39.550;8.786;2022-09-12T12:23:24;3.78;;;1.00;;
49416;SDS011;35290;39.550;8.786;2022-09-12T12:26:00;3.10;;;1.10;;
49416;SDS011;35290;39.550;8.786;2022-09-12T12:31:15;1.75;;;0.70;;
49416;SDS011;35290;39.550;8.786;2022-09-12T12:36:27;2.58;;;0.82;;
49416;SDS011;35290;39.550;8.786;2022-09-12T12:39:53;0.90;;;0.70;;
49416;SDS011;35290;39.550;8.786;2022-09-12T12:42:00;2.58;;;0.77;;
49416;SDS011;35290;39.550;8.786;2022-09-12T12:55:20;3.35;;;1.13;;
49416;SDS011;35290;39.550;8.786;2022-09-12T13:05:29;2.92;;;0.82;;
49416;SDS011;35290;39.550;8.786;2022-09-12T13:08:21;4.50;;;0.80;;
49416;SDS011;35290;39.550;8.786;2022-09-12T13:13:33;1.42;;;0.70;;
49416;SDS011;35290;39.550;8.786;2022-09-12T13:16:01;3.33;;;1.10;;
49416;SDS011;35290;39.550;8.786;2022-09-12T13:18:27;2.75;;;0.88;;
49416;SDS011;35290;39.550;8.786;2022-09-12T13:23:32;2.90;;;1.05;;
49416;SDS011;35290;39.550;8.786;2022-09-12T13:25:59;1.90;;;0.90;;
49416;SDS011;35290;39.550;8.786;2022-09-12T13:28:26;4.32;;;1.02;;
49416;SDS011;35290;39.550;8.786;2022-09-12T13:39:15;4.75;;;1.20;;
49416;SDS011;35290;39.550;8.786;2022-09-12T13:47:45;4.72;;;1.20;;
49416;SDS011;35290;39.550;8.786;2022-09-12T13:50:25;5.32;;;1.10;;
49416;SDS011;35290;39.550;8.786;2022-09-12T13:53:03;4.32;;;1.20;;
49416;SDS011;35290;39.550;8.786;2022-09-12T13:58:01;2.83;;;1.10;;
49416;SDS011;35290;39.550;8.786;2022-09-12T14:00:28;3.00;;;1.17;;
49416;SDS011;35290;39.550;8.786;2022-09-12T14:02:56;4.38;;;1.00;;
49416;SDS011;35290;39.550;8.786;2022-09-12T14:05:40;6.82;;;1.20;;
49416;SDS011;35290;39.550;8.786;2022-09-12T14:08:09;4.55;;;1.10;;
49416;SDS011;35290;39.550;8.786;2022-09-12T14:10:38;2.25;;;1.20;;
49416;SDS011;35290;39.550;8.786;2022-09-12T14:16:03;4.43;;;1.10;;
49416;SDS011;35290;39.550;8.786;2022-09-12T14:18:33;6.35;;;1.00;;
49416;SDS011;35290;39.550;8.786;2022-09-12T14:21:11;3.92;;;1.00;;
49416;SDS011;35290;39.550;8.786;2022-09-12T14:23:44;6.38;;;1.10;;
49416;SDS011;35290;39.550;8.786;2022-09-12T14:26:12;6.03;;;1.23;;
49416;SDS011;35290;39.550;8.786;2022-09-12T14:28:40;3.33;;;1.08;;
49416;SDS011;35290;39.550;8.786;2022-09-12T14:31:19;3.80;;;1.23;;
49416;SDS011;35290;39.550;8.786;2022-09-12T14:39:25;5.85;;;1.10;;
49416;SDS011;35290;39.550;8.786;2022-09-12T14:42:05;3.20;;;1.00;;
49416;SDS011;35290;39.550;8.786;2022-09-12T14:45:03;2.42;;;0.90;;
49416;SDS011;35290;39.550;8.786;2022-09-12T14:47:41;3.53;;;0.90;;
49416;SDS011;35290;39.550;8.786;2022-09-12T14:50:14;4.28;;;1.20;;
49416;SDS011;35290;39.550;8.786;2022-09-12T14:52:41;4.65;;;1.08;;
49416;SDS011;35290;39.550;8.786;2022-09-12T14:57:40;4.95;;;0.80;;
49416;SDS011;35290;39.550;8.786;2022-09-12T15:02:44;2.38;;;1.00;;
49416;SDS011;35290;39.550;8.786;2022-09-12T15:13:26;6.45;;;1.10;;
49416;SDS011;35290;39.550;8.786;2022-09-12T15:15:49;2.85;;;1.10;;
49416;SDS011;35290;39.550;8.786;2022-09-12T15:18:17;2.83;;;1.00;;
49416;SDS011;35290;39.550;8.786;2022-09-12T15:20:44;4.28;;;0.95;;
49416;SDS011;35290;39.550;8.786;2022-09-12T15:23:15;3.83;;;1.00;;
49416;SDS011;35290;39.550;8.786;2022-09-12T15:25:43;5.68;;;1.10;;
49416;SDS011;35290;39.550;8.786;2022-09-12T15:28:19;5.22;;;1.35;;
49416;SDS011;35290;39.550;8.786;2022-09-12T15:30:46;5.38;;;1.20;;
49416;SDS011;35290;39.550;8.786;2022-09-12T15:33:14;2.92;;;1.05;;
49416;SDS011;35290;39.550;8.786;2022-09-12T15:35:41;3.50;;;1.00;;
49416;SDS011;35290;39.550;8.786;2022-09-12T15:38:08;3.80;;;1.20;;
49416;SDS011;35290;39.550;8.786;2022-09-12T15:40:35;2.88;;;0.90;;
49416;SDS011;35290;39.550;8.786;2022-09-12T15:43:00;3.67;;;1.20;;
49416;SDS011;35290;39.550;8.786;2022-09-12T15:45:36;2.78;;;0.95;;
49416;SDS011;35290;39.550;8.786;2022-09-12T15:48:02;2.42;;;1.00;;
49416;SDS011;35290;39.550;8.786;2022-09-12T15:50:28;8.70;;;1.55;;
49416;SDS011;35290;39.550;8.786;2022-09-12T15:52:54;5.65;;;1.20;;
49416;SDS011;35290;39.550;8.786;2022-09-12T15:55:21;2.47;;;0.85;;
49416;SDS011;35290;39.550;8.786;2022-09-12T15:57:48;4.25;;;1.10;;
49416;SDS011;35290;39.550;8.786;2022-09-12T16:00:14;10.15;;;1.48;;
49416;SDS011;35290;39.550;8.786;2022-09-12T16:02:41;10.27;;;1.90;;
49416;SDS011;35290;39.550;8.786;2022-09-12T16:05:10;6.00;;;1.17;;
49416;SDS011;35290;39.550;8.786;2022-09-12T16:10:04;5.50;;;1.08;;
49416;SDS011;35290;39.550;8.786;2022-09-12T16:12:30;7.13;;;1.73;;
49416;SDS011;35290;39.550;8.786;2022-09-12T16:14:55;3.63;;;1.00;;
49416;SDS011;35290;39.550;8.786;2022-09-12T16:17:21;2.38;;;1.10;;
49416;SDS011;35290;39.550;8.786;2022-09-12T16:19:47;5.38;;;1.40;;
49416;SDS011;35290;39.550;8.786;2022-09-12T16:22:12;6.95;;;1.25;;
49416;SDS011;35290;39.550;8.786;2022-09-12T16:24:38;4.10;;;1.20;;
49416;SDS011;35290;39.550;8.786;2022-09-12T16:27:04;4.35;;;1.05;;
49416;SDS011;35290;39.550;8.786;2022-09-12T16:29:30;3.58;;;0.90;;
49416;SDS011;35290;39.550;8.786;2022-09-12T16:31:55;5.43;;;1.20;;
49416;SDS011;35290;39.550;8.786;2022-09-12T16:34:21;4.68;;;1.00;;
49416;SDS011;35290;39.550;8.786;2022-09-12T16:36:46;2.40;;;1.15;;
49416;SDS011;35290;39.550;8.786;2022-09-12T16:39:12;3.60;;;1.33;;
49416;SDS011;35290;39.550;8.786;2022-09-12T16:41:37;4.80;;;1.13;;
49416;SDS011;35290;39.550;8.786;2022-09-12T16:44:06;2.22;;;1.10;;
49416;SDS011;35290;39.550;8.786;2022-09-12T16:46:32;6.20;;;1.23;;
49416;SDS011;35290;39.550;8.786;2022-09-12T16:48:58;7.13;;;1.50;;
49416;SDS011;35290;39.550;8.786;2022-09-12T16:51:24;6.95;;;1.35;;
49416;SDS011;35290;39.550;8.786;2022-09-12T16:53:52;9.43;;;1.30;;
49416;SDS011;35290;39.550;8.786;2022-09-12T16:56:18;3.92;;;1.20;;
49416;SDS011;35290;39.550;8.786;2022-09-12T16:58:43;7.32;;;1.50;;
49416;SDS011;35290;39.550;8.786;2022-09-12T17:01:10;5.10;;;1.30;;
49416;SDS011;35290;39.550;8.786;2022-09-12T17:03:37;3.92;;;1.30;;
49416;SDS011;35290;39.550;8.786;2022-09-12T17:06:04;5.65;;;1.05;;
49416;SDS011;35290;39.550;8.786;2022-09-12T17:08:35;7.20;;;1.40;;
49416;SDS011;35290;39.550;8.786;2022-09-12T17:11:06;3.45;;;1.10;;
49416;SDS011;35290;39.550;8.786;2022-09-12T17:13:36;8.88;;;1.40;;
49416;SDS011;35290;39.550;8.786;2022-09-12T17:16:06;6.65;;;1.30;;
49416;SDS011;35290;39.550;8.786;2022-09-12T17:18:33;6.43;;;1.67;;
49416;SDS011;35290;39.550;8.786;2022-09-12T17:20:59;4.85;;;1.38;;
49416;SDS011;35290;39.550;8.786;2022-09-12T17:23:24;5.43;;;1.40;;
49416;SDS011;35290;39.550;8.786;2022-09-12T17:25:50;5.60;;;1.40;;
49416;SDS011;35290;39.550;8.786;2022-09-12T17:28:16;7.68;;;1.25;;
49416;SDS011;35290;39.550;8.786;2022-09-12T17:30:42;9.35;;;1.63;;
49416;SDS011;35290;39.550;8.786;2022-09-12T17:33:08;5.47;;;1.40;;
49416;SDS011;35290;39.550;8.786;2022-09-12T17:35:34;6.05;;;1.70;;
49416;SDS011;35290;39.550;8.786;2022-09-12T17:38:00;9.20;;;1.95;;
49416;SDS011;35290;39.550;8.786;2022-09-12T17:40:26;6.95;;;1.42;;
49416;SDS011;35290;39.550;8.786;2022-09-12T17:42:52;6.03;;;1.40;;
49416;SDS011;35290;39.550;8.786;2022-09-12T17:45:17;5.68;;;1.13;;
49416;SDS011;35290;39.550;8.786;2022-09-12T17:47:43;5.38;;;1.70;;
49416;SDS011;35290;39.550;8.786;2022-09-12T17:50:08;8.60;;;1.88;;
49416;SDS011;35290;39.550;8.786;2022-09-12T17:52:34;4.90;;;1.50;;
49416;SDS011;35290;39.550;8.786;2022-09-12T17:55:00;8.60;;;1.50;;
49416;SDS011;35290;39.550;8.786;2022-09-12T17:57:26;9.10;;;1.75;;
49416;SDS011;35290;39.550;8.786;2022-09-12T17:59:51;3.83;;;1.40;;
49416;SDS011;35290;39.550;8.786;2022-09-12T18:02:17;5.35;;;1.33;;
49416;SDS011;35290;39.550;8.786;2022-09-12T18:04:43;4.60;;;1.70;;
49416;SDS011;35290;39.550;8.786;2022-09-12T18:07:16;7.22;;;1.58;;
49416;SDS011;35290;39.550;8.786;2022-09-12T18:09:43;5.22;;;1.33;;
49416;SDS011;35290;39.550;8.786;2022-09-12T18:12:10;2.72;;;1.40;;
49416;SDS011;35290;39.550;8.786;2022-09-12T18:14:36;5.80;;;1.55;;
49416;SDS011;35290;39.550;8.786;2022-09-12T18:17:02;3.85;;;1.40;;